sensor_id;sensor_type;location;lat;lon;timestamp;pressure;altitude;pressure_sealevel;temperature;humidity
9721;BME280;4899;42.644;23.366;2023-02-15T00:01:45;95417.34;;;1.80;100.00
9721;BME280;4899;42.644;23.366;2023-02-15T00:04:17;95421.34;;;1.76;100.00
9721;BME280;4899;42.644;23.366;2023-02-15T00:06:42;95413.72;;;1.64;100.00
9721;BME280;4899;42.644;23.366;2023-02-15T00:09:11;95415.91;;;1.61;100.00
9721;BME280;4899;42.644;23.366;2023-02-15T00:11:38;95422.31;;;1.63;100.00
9721;BME280;4899;42.644;23.366;2023-02-15T00:14:20;95418.34;;;1.67;100.00
9721;BME280;4899;42.644;23.366;2023-02-15T00:16:47;95424.63;;;1.65;100.00
9721;BME280;4899;42.644;23.366;2023-02-15T00:19:15;95418.44;;;1.61;100.00
9721;BME280;4899;42.644;23.366;2023-02-15T00:21:42;95423.63;;;1.54;100.00
9721;BME280;4899;42.644;23.366;2023-02-15T00:24:10;95430.03;;;1.57;100.00
9721;BME280;4899;42.644;23.366;2023-02-15T00:26:38;95425.94;;;1.67;100.00
9721;BME280;4899;42.644;23.366;2023-02-15T00:29:04;95425.63;;;1.87;100.00
9721;BME280;4899;42.644;23.366;2023-02-15T00:31:31;95427.69;;;1.90;100.00
9721;BME280;4899;42.644;23.366;2023-02-15T00:34:16;95437.31;;;1.88;100.00
9721;BME280;4899;42.644;23.366;2023-02-15T00:36:43;95454.06;;;1.89;100.00
9721;BME280;4899;42.644;23.366;2023-02-15T00:39:09;95424.41;;;1.78;100.00
9721;BME280;4899;42.644;23.366;2023-02-15T00:41:35;95434.66;;;1.71;100.00
9721;BME280;4899;42.644;23.366;2023-02-15T00:44:01;95439.84;;;1.76;100.00
9721;BME280;4899;42.644;23.366;2023-02-15T00:46:27;95433.78;;;1.66;100.00
9721;BME280;4899;42.644;23.366;2023-02-15T00:48:54;95425.28;;;1.60;100.00
9721;BME280;4899;42.644;23.366;2023-02-15T00:51:19;95422.88;;;1.53;100.00
9721;BME280;4899;42.644;23.366;2023-02-15T00:53:45;95422.09;;;1.65;100.00
9721;BME280;4899;42.644;23.366;2023-02-15T00:56:11;95424.28;;;1.73;100.00
9721;BME280;4899;42.644;23.366;2023-02-15T00:58:47;95414.38;;;1.71;100.00
9721;BME280;4899;42.644;23.366;2023-02-15T01:01:16;95421.34;;;1.76;100.00
9721;BME280;4899;42.644;23.366;2023-02-15T01:03:47;95431.34;;;1.71;100.00
9721;BME280;4899;42.644;23.366;2023-02-15T01:06:14;95422.75;;;1.72;100.00
9721;BME280;4899;42.644;23.366;2023-02-15T01:08:41;95419.31;;;1.66;100.00
9721;BME280;4899;42.644;23.366;2023-02-15T01:11:13;95421.19;;;1.71;100.00
9721;BME280;4899;42.644;23.366;2023-02-15T01:13:39;95414.47;;;1.65;100.00
9721;BME280;4899;42.644;23.366;2023-02-15T01:16:05;95419.44;;;1.71;100.00
9721;BME280;4899;42.644;23.366;2023-02-15T01:18:32;95425.06;;;1.73;100.00
9721;BME280;4899;42.644;23.366;2023-02-15T01:20:57;95409.19;;;1.66;100.00
9721;BME280;4899;42.644;23.366;2023-02-15T01:23:23;95409.19;;;1.66;100.00
9721;BME280;4899;42.644;23.366;2023-02-15T01:25:49;95415.13;;;1.72;100.00
9721;BME280;4899;42.644;23.366;2023-02-15T01:28:16;95414.50;;;1.76;100.00
9721;BME280;4899;42.644;23.366;2023-02-15T01:30:42;95410.72;;;1.91;100.00
9721;BME280;4899;42.644;23.366;2023-02-15T01:33:07;95407.97;;;1.92;100.00
9721;BME280;4899;42.644;23.366;2023-02-15T01:35:33;95403.09;;;1.91;100.00
9721;BME280;4899;42.644;23.366;2023-02-15T01:37:58;95393.09;;;1.84;100.00
9721;BME280;4899;42.644;23.366;2023-02-15T01:40:25;95404.34;;;1.76;100.00
9721;BME280;4899;42.644;23.366;2023-02-15T01:42:52;95406.97;;;1.70;100.00
9721;BME280;4899;42.644;23.366;2023-02-15T01:48:31;95394.97;;;1.53;100.00
9721;BME280;4899;42.644;23.366;2023-02-15T01:50:36;95397.50;;;1.42;100.00
9721;BME280;4899;42.644;23.366;2023-02-15T01:55:43;95394.97;;;1.53;100.00
9721;BME280;4899;42.644;23.366;2023-02-15T01:58:11;95378.34;;;1.34;100.00
9721;BME280;4899;42.644;23.366;2023-02-15T02:00:39;95381.41;;;1.36;100.00
9721;BME280;4899;42.644;23.366;2023-02-15T02:03:05;95394.53;;;1.33;100.00
9721;BME280;4899;42.644;23.366;2023-02-15T02:05:32;95376.22;;;1.43;100.00
9721;BME280;4899;42.644;23.366;2023-02-15T02:07:59;95378.00;;;1.31;100.00
9721;BME280;4899;42.644;23.366;2023-02-15T02:10:26;95386.59;;;1.41;100.00
9721;BME280;4899;42.644;23.366;2023-02-15T02:12:56;95391.66;;;1.41;100.00
9721;BME280;4899;42.644;23.366;2023-02-15T02:15:31;95386.47;;;1.36;100.00
9721;BME280;4899;42.644;23.366;2023-02-15T02:18:11;95391.34;;;1.49;100.00
9721;BME280;4899;42.644;23.366;2023-02-15T02:21:17;95383.84;;;1.31;100.00
9721;BME280;4899;42.644;23.366;2023-02-15T02:27:07;95409.28;;;1.36;100.00
9721;BME280;4899;42.644;23.366;2023-02-15T02:29:54;95399.81;;;1.43;100.00
9721;BME280;4899;42.644;23.366;2023-02-15T02:32:52;95407.97;;;1.34;100.00
9721;BME280;4899;42.644;23.366;2023-02-15T02:41:01;95402.16;;;1.57;100.00
9721;BME280;4899;42.644;23.366;2023-02-15T02:43:37;95407.63;;;1.89;100.00
9721;BME280;4899;42.644;23.366;2023-02-15T02:46:17;95401.22;;;1.98;100.00
9721;BME280;4899;42.644;23.366;2023-02-15T02:48:46;95395.38;;;1.97;100.00
9721;BME280;4899;42.644;23.366;2023-02-15T02:51:19;95405.88;;;1.89;100.00
9721;BME280;4899;42.644;23.366;2023-02-15T02:53:52;95409.94;;;1.90;100.00
9721;BME280;4899;42.644;23.366;2023-02-15T02:56:25;95411.63;;;1.84;100.00
9721;BME280;4899;42.644;23.366;2023-02-15T02:58:58;95422.75;;;1.83;100.00
9721;BME280;4899;42.644;23.366;2023-02-15T03:01:37;95418.78;;;1.76;100.00
9721;BME280;4899;42.644;23.366;2023-02-15T03:04:32;95427.25;;;1.70;100.00
9721;BME280;4899;42.644;23.366;2023-02-15T03:07:03;95423.31;;;1.74;100.00
9721;BME280;4899;42.644;23.366;2023-02-15T03:09:46;95433.78;;;1.89;100.00
9721;BME280;4899;42.644;23.366;2023-02-15T03:12:20;95414.25;;;1.90;100.00
9721;BME280;4899;42.644;23.366;2023-02-15T03:14:59;95432.88;;;1.95;100.00
9721;BME280;4899;42.644;23.366;2023-02-15T03:20:14;95442.38;;;1.88;100.00
9721;BME280;4899;42.644;23.366;2023-02-15T03:22:56;95437.84;;;1.90;100.00
9721;BME280;4899;42.644;23.366;2023-02-15T03:25:27;95431.34;;;1.82;100.00
9721;BME280;4899;42.644;23.366;2023-02-15T03:28:00;95437.31;;;1.88;100.00
9721;BME280;4899;42.644;23.366;2023-02-15T03:30:28;95430.34;;;1.95;100.00
9721;BME280;4899;42.644;23.366;2023-02-15T03:32:56;95433.22;;;1.87;100.00
9721;BME280;4899;42.644;23.366;2023-02-15T03:35:32;95422.53;;;1.85;100.00
9721;BME280;4899;42.644;23.366;2023-02-15T03:38:00;95435.00;;;1.87;100.00
9721;BME280;4899;42.644;23.366;2023-02-15T03:40:47;95427.16;;;1.88;100.00
9721;BME280;4899;42.644;23.366;2023-02-15T03:46:28;95430.13;;;1.85;100.00
9721;BME280;4899;42.644;23.366;2023-02-15T03:49:04;95425.03;;;1.97;100.00
9721;BME280;4899;42.644;23.366;2023-02-15T03:51:35;95418.19;;;2.09;100.00
9721;BME280;4899;42.644;23.366;2023-02-15T03:54:15;95421.72;;;2.08;100.00
9721;BME280;4899;42.644;23.366;2023-02-15T03:57:02;95418.75;;;2.11;100.00
9721;BME280;4899;42.644;23.366;2023-02-15T03:59:46;95437.50;;;2.10;100.00
9721;BME280;4899;42.644;23.366;2023-02-15T04:02:38;95428.03;;;2.05;100.00
9721;BME280;4899;42.644;23.366;2023-02-15T04:05:08;95430.56;;;1.94;100.00
9721;BME280;4899;42.644;23.366;2023-02-15T04:07:34;95419.53;;;1.88;100.00
9721;BME280;4899;42.644;23.366;2023-02-15T04:10:07;95430.59;;;1.82;100.00
9721;BME280;4899;42.644;23.366;2023-02-15T04:12:51;95438.28;;;1.87;100.00
9721;BME280;4899;42.644;23.366;2023-02-15T04:15:16;95444.69;;;1.90;100.00
9721;BME280;4899;42.644;23.366;2023-02-15T04:18:03;95440.38;;;1.90;100.00
9721;BME280;4899;42.644;23.366;2023-02-15T04:20:29;95442.03;;;1.96;100.00
9721;BME280;4899;42.644;23.366;2023-02-15T04:23:13;95437.09;;;2.01;100.00
9721;BME280;4899;42.644;23.366;2023-02-15T04:25:57;95412.38;;;1.85;100.00
9721;BME280;4899;42.644;23.366;2023-02-15T04:28:22;95455.25;;;1.98;100.00
9721;BME280;4899;42.644;23.366;2023-02-15T04:30:48;95453.63;;;1.92;100.00
9721;BME280;4899;42.644;23.366;2023-02-15T04:33:14;95465.53;;;2.03;100.00
9721;BME280;4899;42.644;23.366;2023-02-15T04:35:39;95468.50;;;2.12;100.00
9721;BME280;4899;42.644;23.366;2023-02-15T04:38:04;95474.91;;;2.03;100.00
9721;BME280;4899;42.644;23.366;2023-02-15T04:40:30;95473.69;;;2.05;100.00
9721;BME280;4899;42.644;23.366;2023-02-15T04:42:56;95486.28;;;2.00;100.00
9721;BME280;4899;42.644;23.366;2023-02-15T04:45:21;95475.78;;;2.08;100.00
9721;BME280;4899;42.644;23.366;2023-02-15T04:47:46;95467.19;;;1.98;100.00
9721;BME280;4899;42.644;23.366;2023-02-15T04:50:12;95470.94;;;1.95;100.00
9721;BME280;4899;42.644;23.366;2023-02-15T04:52:38;95466.38;;;2.21;100.00
9721;BME280;4899;42.644;23.366;2023-02-15T04:55:04;95480.38;;;2.35;100.00
9721;BME280;4899;42.644;23.366;2023-02-15T04:57:30;95487.09;;;2.41;100.00
9721;BME280;4899;42.644;23.366;2023-02-15T04:59:57;95484.81;;;2.28;100.00
9721;BME280;4899;42.644;23.366;2023-02-15T05:02:24;95483.59;;;2.19;100.00
9721;BME280;4899;42.644;23.366;2023-02-15T05:04:50;95473.22;;;2.20;100.00
9721;BME280;4899;42.644;23.366;2023-02-15T05:07:16;95483.94;;;2.22;100.00
9721;BME280;4899;42.644;23.366;2023-02-15T05:09:52;95478.09;;;1.98;100.00
9721;BME280;4899;42.644;23.366;2023-02-15T05:12:17;95479.00;;;1.92;100.00
9721;BME280;4899;42.644;23.366;2023-02-15T05:14:43;95477.00;;;1.94;100.00
9721;BME280;4899;42.644;23.366;2023-02-15T05:17:08;95487.06;;;2.01;100.00
9721;BME280;4899;42.644;23.366;2023-02-15T05:19:37;95486.72;;;2.09;100.00
9721;BME280;4899;42.644;23.366;2023-02-15T05:22:02;95491.44;;;2.17;100.00
9721;BME280;4899;42.644;23.366;2023-02-15T05:24:27;95494.97;;;2.16;100.00
9721;BME280;4899;42.644;23.366;2023-02-15T05:27:12;95511.66;;;2.24;100.00
9721;BME280;4899;42.644;23.366;2023-02-15T05:29:57;95507.44;;;2.17;100.00
9721;BME280;4899;42.644;23.366;2023-02-15T05:32:22;95510.19;;;2.16;100.00
9721;BME280;4899;42.644;23.366;2023-02-15T05:34:52;95526.75;;;2.19;100.00
9721;BME280;4899;42.644;23.366;2023-02-15T05:37:18;95513.41;;;2.35;100.00
9721;BME280;4899;42.644;23.366;2023-02-15T05:39:43;95480.97;;;2.13;100.00
9721;BME280;4899;42.644;23.366;2023-02-15T05:42:09;95502.59;;;2.28;100.00
9721;BME280;4899;42.644;23.366;2023-02-15T05:44:34;95487.81;;;2.25;100.00
9721;BME280;4899;42.644;23.366;2023-02-15T05:47:00;95497.63;;;2.21;100.00
9721;BME280;4899;42.644;23.366;2023-02-15T05:49:28;95515.25;;;2.39;100.00
9721;BME280;4899;42.644;23.366;2023-02-15T05:51:53;95523.88;;;2.50;100.00
9721;BME280;4899;42.644;23.366;2023-02-15T05:54:19;95513.91;;;2.60;100.00
9721;BME280;4899;42.644;23.366;2023-02-15T05:56:45;95521.84;;;2.64;100.00
9721;BME280;4899;42.644;23.366;2023-02-15T05:59:10;95510.59;;;2.60;100.00
9721;BME280;4899;42.644;23.366;2023-02-15T06:01:36;95510.28;;;2.56;100.00
9721;BME280;4899;42.644;23.366;2023-02-15T06:04:01;95518.56;;;2.52;100.00
9721;BME280;4899;42.644;23.366;2023-02-15T06:06:27;95518.44;;;2.58;100.00
9721;BME280;4899;42.644;23.366;2023-02-15T06:08:52;95507.88;;;2.38;100.00
9721;BME280;4899;42.644;23.366;2023-02-15T06:11:19;95536.56;;;2.50;100.00
9721;BME280;4899;42.644;23.366;2023-02-15T06:13:44;95518.78;;;2.38;100.00
9721;BME280;4899;42.644;23.366;2023-02-15T06:16:10;95516.69;;;2.35;100.00
9721;BME280;4899;42.644;23.366;2023-02-15T06:18:35;95521.88;;;2.40;100.00
9721;BME280;4899;42.644;23.366;2023-02-15T06:21:01;95519.25;;;2.35;100.00
9721;BME280;4899;42.644;23.366;2023-02-15T06:23:26;95520.56;;;2.50;100.00
9721;BME280;4899;42.644;23.366;2023-02-15T06:25:52;95521.53;;;2.60;100.00
9721;BME280;4899;42.644;23.366;2023-02-15T06:28:17;95517.91;;;2.44;100.00
9721;BME280;4899;42.644;23.366;2023-02-15T06:30:43;95520.44;;;2.56;100.00
9721;BME280;4899;42.644;23.366;2023-02-15T06:33:08;95526.78;;;2.70;100.00
9721;BME280;4899;42.644;23.366;2023-02-15T06:35:34;95531.44;;;2.73;100.00
9721;BME280;4899;42.644;23.366;2023-02-15T06:37:59;95521.28;;;2.73;100.00
9721;BME280;4899;42.644;23.366;2023-02-15T06:40:26;95520.38;;;2.80;100.00
9721;BME280;4899;42.644;23.366;2023-02-15T06:42:51;95531.03;;;2.93;100.00
9721;BME280;4899;42.644;23.366;2023-02-15T06:45:17;95539.09;;;3.02;100.00
9721;BME280;4899;42.644;23.366;2023-02-15T06:47:42;95505.69;;;2.82;100.00
9721;BME280;4899;42.644;23.366;2023-02-15T06:50:10;95532.34;;;3.07;100.00
9721;BME280;4899;42.644;23.366;2023-02-15T06:52:35;95525.19;;;2.93;100.00
9721;BME280;4899;42.644;23.366;2023-02-15T06:55:09;95520.88;;;2.93;100.00
9721;BME280;4899;42.644;23.366;2023-02-15T06:57:35;95515.22;;;3.03;100.00
9721;BME280;4899;42.644;23.366;2023-02-15T07:00:02;95509.91;;;3.04;100.00
9721;BME280;4899;42.644;23.366;2023-02-15T07:02:30;95512.22;;;3.06;100.00
9721;BME280;4899;42.644;23.366;2023-02-15T07:04:57;95540.09;;;3.01;100.00
9721;BME280;4899;42.644;23.366;2023-02-15T07:07:23;95518.31;;;3.05;100.00
9721;BME280;4899;42.644;23.366;2023-02-15T07:09:48;95531.50;;;3.19;100.00
9721;BME280;4899;42.644;23.366;2023-02-15T07:12:14;95530.19;;;3.16;100.00
9721;BME280;4899;42.644;23.366;2023-02-15T07:14:58;95533.88;;;3.08;100.00
9721;BME280;4899;42.644;23.366;2023-02-15T07:17:25;95537.56;;;3.29;100.00
9721;BME280;4899;42.644;23.366;2023-02-15T07:19:54;95541.88;;;3.29;100.00
9721;BME280;4899;42.644;23.366;2023-02-15T07:22:19;95524.84;;;3.46;100.00
9721;BME280;4899;42.644;23.366;2023-02-15T07:24:45;95563.22;;;3.45;100.00
9721;BME280;4899;42.644;23.366;2023-02-15T07:27:11;95530.63;;;3.42;100.00
9721;BME280;4899;42.644;23.366;2023-02-15T07:29:36;95531.16;;;3.44;100.00
9721;BME280;4899;42.644;23.366;2023-02-15T07:32:02;95540.72;;;3.36;100.00
9721;BME280;4899;42.644;23.366;2023-02-15T07:34:28;95533.38;;;3.52;100.00
9721;BME280;4899;42.644;23.366;2023-02-15T07:36:53;95510.34;;;3.30;100.00
9721;BME280;4899;42.644;23.366;2023-02-15T07:39:19;95518.69;;;3.25;100.00
9721;BME280;4899;42.644;23.366;2023-02-15T07:41:44;95521.69;;;3.22;100.00
9721;BME280;4899;42.644;23.366;2023-02-15T07:44:14;95503.69;;;3.12;100.00
9721;BME280;4899;42.644;23.366;2023-02-15T07:46:40;95506.72;;;3.26;100.00
9721;BME280;4899;42.644;23.366;2023-02-15T07:49:05;95532.00;;;3.32;100.00
9721;BME280;4899;42.644;23.366;2023-02-15T07:51:31;95517.38;;;3.23;100.00
9721;BME280;4899;42.644;23.366;2023-02-15T07:53:57;95504.31;;;3.19;100.00
9721;BME280;4899;42.644;23.366;2023-02-15T07:56:24;95522.47;;;3.39;100.00
9721;BME280;4899;42.644;23.366;2023-02-15T07:58:51;95523.66;;;3.65;100.00
9721;BME280;4899;42.644;23.366;2023-02-15T08:01:37;95521.56;;;3.62;100.00
9721;BME280;4899;42.644;23.366;2023-02-15T08:04:05;95523.94;;;3.69;100.00
9721;BME280;4899;42.644;23.366;2023-02-15T08:06:33;95536.28;;;3.94;100.00
9721;BME280;4899;42.644;23.366;2023-02-15T08:08:59;95523.25;;;3.90;100.00
9721;BME280;4899;42.644;23.366;2023-02-15T08:11:28;95556.34;;;3.90;100.00
9721;BME280;4899;42.644;23.366;2023-02-15T08:14:19;95552.97;;;3.85;100.00
9721;BME280;4899;42.644;23.366;2023-02-15T08:16:49;95528.28;;;3.85;100.00
9721;BME280;4899;42.644;23.366;2023-02-15T08:21:50;95532.91;;;4.22;100.00
9721;BME280;4899;42.644;23.366;2023-02-15T08:24:25;95534.88;;;4.37;100.00
9721;BME280;4899;42.644;23.366;2023-02-15T08:26:51;95552.91;;;4.52;100.00
9721;BME280;4899;42.644;23.366;2023-02-15T08:29:19;95534.78;;;4.48;100.00
9721;BME280;4899;42.644;23.366;2023-02-15T08:31:47;95527.28;;;4.42;100.00
9721;BME280;4899;42.644;23.366;2023-02-15T08:34:15;95559.78;;;4.51;100.00
9721;BME280;4899;42.644;23.366;2023-02-15T08:36:42;95541.00;;;4.57;100.00
9721;BME280;4899;42.644;23.366;2023-02-15T08:39:10;95545.31;;;4.57;100.00
9721;BME280;4899;42.644;23.366;2023-02-15T08:41:38;95542.66;;;4.47;100.00
9721;BME280;4899;42.644;23.366;2023-02-15T08:44:06;95548.91;;;4.39;100.00
9721;BME280;4899;42.644;23.366;2023-02-15T08:46:37;95538.72;;;4.39;100.00
9721;BME280;4899;42.644;23.366;2023-02-15T08:49:03;95545.66;;;4.44;100.00
9721;BME280;4899;42.644;23.366;2023-02-15T08:51:34;95538.88;;;4.49;100.00
9721;BME280;4899;42.644;23.366;2023-02-15T08:54:02;95537.31;;;4.70;100.00
9721;BME280;4899;42.644;23.366;2023-02-15T08:56:31;95537.28;;;4.65;100.00
9721;BME280;4899;42.644;23.366;2023-02-15T08:58:57;95544.09;;;4.59;100.00
9721;BME280;4899;42.644;23.366;2023-02-15T09:01:27;95535.19;;;4.62;100.00
9721;BME280;4899;42.644;23.366;2023-02-15T09:04:00;95544.03;;;4.76;100.00
9721;BME280;4899;42.644;23.366;2023-02-15T09:06:27;95546.53;;;4.71;100.00
9721;BME280;4899;42.644;23.366;2023-02-15T09:08:53;95542.38;;;4.65;100.00
9721;BME280;4899;42.644;23.366;2023-02-15T09:11:36;95547.94;;;4.84;100.00
9721;BME280;4899;42.644;23.366;2023-02-15T09:14:04;95536.78;;;4.68;100.00
9721;BME280;4899;42.644;23.366;2023-02-15T09:16:32;95542.50;;;4.53;100.00
9721;BME280;4899;42.644;23.366;2023-02-15T09:18:58;95552.50;;;4.82;99.15
9721;BME280;4899;42.644;23.366;2023-02-15T09:21:25;95549.53;;;4.90;99.63
9721;BME280;4899;42.644;23.366;2023-02-15T09:23:52;95564.91;;;4.95;97.66
9721;BME280;4899;42.644;23.366;2023-02-15T09:26:21;95551.56;;;5.10;95.73
9721;BME280;4899;42.644;23.366;2023-02-15T09:28:51;95552.22;;;5.22;96.18
9721;BME280;4899;42.644;23.366;2023-02-15T09:31:23;95546.81;;;5.45;93.98
9721;BME280;4899;42.644;23.366;2023-02-15T09:33:49;95545.84;;;5.51;89.70
9721;BME280;4899;42.644;23.366;2023-02-15T09:36:33;95572.50;;;5.66;91.79
9721;BME280;4899;42.644;23.366;2023-02-15T09:39:15;95548.28;;;5.68;89.47
9721;BME280;4899;42.644;23.366;2023-02-15T09:42:02;95546.97;;;5.93;89.28
9721;BME280;4899;42.644;23.366;2023-02-15T09:58:04;95537.69;;;6.13;81.57
9721;BME280;4899;42.644;23.366;2023-02-15T10:01:03;95546.88;;;5.82;83.51
9721;BME280;4899;42.644;23.366;2023-02-15T10:06:27;95548.44;;;5.88;86.28
9721;BME280;4899;42.644;23.366;2023-02-15T10:19:57;95523.41;;;5.53;88.56
9721;BME280;4899;42.644;23.366;2023-02-15T10:25:34;95535.09;;;5.76;86.62
9721;BME280;4899;42.644;23.366;2023-02-15T10:28:11;95520.91;;;5.91;87.50
9721;BME280;4899;42.644;23.366;2023-02-15T10:33:38;95514.69;;;6.13;82.05
9721;BME280;4899;42.644;23.366;2023-02-15T10:45:01;95516.78;;;5.84;86.08
9721;BME280;4899;42.644;23.366;2023-02-15T11:03:51;95501.38;;;5.15;92.26
9721;BME280;4899;42.644;23.366;2023-02-15T11:06:26;95491.84;;;5.06;91.79
9721;BME280;4899;42.644;23.366;2023-02-15T11:08:59;95490.03;;;5.01;94.24
9721;BME280;4899;42.644;23.366;2023-02-15T11:11:34;95480.97;;;5.15;92.98
9721;BME280;4899;42.644;23.366;2023-02-15T11:14:17;95489.97;;;5.23;93.58
9721;BME280;4899;42.644;23.366;2023-02-15T11:16:49;95509.31;;;5.46;90.16
9721;BME280;4899;42.644;23.366;2023-02-15T11:19:22;95487.31;;;5.40;89.96
9721;BME280;4899;42.644;23.366;2023-02-15T11:21:53;95494.69;;;5.36;91.71
9721;BME280;4899;42.644;23.366;2023-02-15T11:27:22;95484.94;;;5.60;89.05
9721;BME280;4899;42.644;23.366;2023-02-15T11:30:05;95484.28;;;5.43;89.73
9721;BME280;4899;42.644;23.366;2023-02-15T11:32:40;95472.72;;;5.35;90.82
9721;BME280;4899;42.644;23.366;2023-02-15T11:37:51;95478.91;;;5.44;89.16
9721;BME280;4899;42.644;23.366;2023-02-15T11:42:46;95480.47;;;5.77;88.35
9721;BME280;4899;42.644;23.366;2023-02-15T11:45:26;95470.69;;;6.01;84.68
9721;BME280;4899;42.644;23.366;2023-02-15T11:47:53;95459.44;;;6.50;82.36
9721;BME280;4899;42.644;23.366;2023-02-15T11:50:25;95462.63;;;6.92;75.61
9721;BME280;4899;42.644;23.366;2023-02-15T11:52:53;95454.00;;;7.75;74.09
9721;BME280;4899;42.644;23.366;2023-02-15T11:55:23;95419.56;;;8.26;69.02
9721;BME280;4899;42.644;23.366;2023-02-15T11:57:54;95460.94;;;9.23;65.24
9721;BME280;4899;42.644;23.366;2023-02-15T12:02:57;95434.78;;;9.79;62.10
9721;BME280;4899;42.644;23.366;2023-02-15T12:05:24;95451.06;;;10.28;57.24
9721;BME280;4899;42.644;23.366;2023-02-15T12:07:55;95442.16;;;10.44;57.85
9721;BME280;4899;42.644;23.366;2023-02-15T12:10:26;95459.03;;;10.50;56.38
9721;BME280;4899;42.644;23.366;2023-02-15T12:13:15;95447.63;;;10.08;54.38
9721;BME280;4899;42.644;23.366;2023-02-15T12:15:44;95443.41;;;10.46;55.90
9721;BME280;4899;42.644;23.366;2023-02-15T12:20:50;95437.09;;;10.76;55.68
9721;BME280;4899;42.644;23.366;2023-02-15T12:23:17;95438.16;;;10.94;54.66
9721;BME280;4899;42.644;23.366;2023-02-15T12:25:50;95432.44;;;10.78;53.16
9721;BME280;4899;42.644;23.366;2023-02-15T12:30:52;95427.50;;;11.01;54.66
9721;BME280;4899;42.644;23.366;2023-02-15T12:36:08;95435.97;;;11.39;51.35
9721;BME280;4899;42.644;23.366;2023-02-15T12:39:21;95439.53;;;11.24;50.81
9721;BME280;4899;42.644;23.366;2023-02-15T12:42:04;95417.56;;;10.94;51.92
9721;BME280;4899;42.644;23.366;2023-02-15T12:44:33;95404.38;;;11.33;53.63
9721;BME280;4899;42.644;23.366;2023-02-15T12:47:18;95412.19;;;11.28;51.19
9721;BME280;4899;42.644;23.366;2023-02-15T12:50:03;95395.16;;;11.79;51.41
9721;BME280;4899;42.644;23.366;2023-02-15T12:52:30;95404.91;;;11.63;50.78
9721;BME280;4899;42.644;23.366;2023-02-15T12:55:10;95398.59;;;11.88;49.49
9721;BME280;4899;42.644;23.366;2023-02-15T12:57:36;95394.22;;;12.02;52.52
9721;BME280;4899;42.644;23.366;2023-02-15T13:02:47;95407.00;;;12.35;49.58
9721;BME280;4899;42.644;23.366;2023-02-15T13:05:42;95410.06;;;12.50;47.22
9721;BME280;4899;42.644;23.366;2023-02-15T13:08:19;95406.44;;;12.51;47.98
9721;BME280;4899;42.644;23.366;2023-02-15T13:13:24;95389.53;;;12.81;49.55
9721;BME280;4899;42.644;23.366;2023-02-15T13:15:52;95394.41;;;12.83;47.66
9721;BME280;4899;42.644;23.366;2023-02-15T13:19:02;95396.25;;;11.73;47.14
9721;BME280;4899;42.644;23.366;2023-02-15T13:21:37;95387.53;;;12.01;48.25
9721;BME280;4899;42.644;23.366;2023-02-15T13:24:35;95390.63;;;12.67;45.88
9721;BME280;4899;42.644;23.366;2023-02-15T13:27:04;95390.53;;;12.72;48.39
9721;BME280;4899;42.644;23.366;2023-02-15T13:29:33;95400.78;;;12.49;48.31
9721;BME280;4899;42.644;23.366;2023-02-15T13:32:46;95398.16;;;12.77;47.04
9721;BME280;4899;42.644;23.366;2023-02-15T13:34:57;95401.25;;;13.01;47.55
9721;BME280;4899;42.644;23.366;2023-02-15T13:37:37;95406.16;;;13.11;45.31
9721;BME280;4899;42.644;23.366;2023-02-15T13:40:20;95403.28;;;13.49;46.20
9721;BME280;4899;42.644;23.366;2023-02-15T13:57:00;95410.38;;;12.85;46.01
9721;BME280;4899;42.644;23.366;2023-02-15T14:19:50;95432.78;;;11.28;49.33
9721;BME280;4899;42.644;23.366;2023-02-15T14:25:30;95434.41;;;11.24;49.34
9721;BME280;4899;42.644;23.366;2023-02-15T14:30:31;95448.03;;;10.87;50.53
9721;BME280;4899;42.644;23.366;2023-02-15T14:33:06;95438.78;;;10.86;50.02
9721;BME280;4899;42.644;23.366;2023-02-15T14:35:40;95423.88;;;10.64;50.97
9721;BME280;4899;42.644;23.366;2023-02-15T14:41:10;95432.88;;;10.67;51.20
9721;BME280;4899;42.644;23.366;2023-02-15T14:46:52;95433.41;;;10.40;51.16
9721;BME280;4899;42.644;23.366;2023-02-15T14:49:24;95428.50;;;10.43;52.53
9721;BME280;4899;42.644;23.366;2023-02-15T14:56:41;95428.00;;;10.17;52.50
9721;BME280;4899;42.644;23.366;2023-02-15T14:59:21;95431.75;;;10.01;52.70
9721;BME280;4899;42.644;23.366;2023-02-15T15:01:58;95445.13;;;9.40;53.23
9721;BME280;4899;42.644;23.366;2023-02-15T15:07:08;95428.28;;;8.15;57.48
9721;BME280;4899;42.644;23.366;2023-02-15T15:09:37;95414.84;;;7.59;58.40
9721;BME280;4899;42.644;23.366;2023-02-15T15:14:46;95426.28;;;6.70;64.30
9721;BME280;4899;42.644;23.366;2023-02-15T15:22:27;95418.94;;;5.74;73.74
9721;BME280;4899;42.644;23.366;2023-02-15T15:25:07;95424.53;;;5.39;81.97
9721;BME280;4899;42.644;23.366;2023-02-15T15:27:41;95424.44;;;5.23;77.75
9721;BME280;4899;42.644;23.366;2023-02-15T15:38:35;95442.78;;;4.23;100.00
9721;BME280;4899;42.644;23.366;2023-02-15T15:49:41;95449.69;;;4.06;100.00
9721;BME280;4899;42.644;23.366;2023-02-15T15:52:19;95431.88;;;3.89;100.00
9721;BME280;4899;42.644;23.366;2023-02-15T15:54:48;95440.34;;;3.94;100.00
9721;BME280;4899;42.644;23.366;2023-02-15T15:57:33;95451.41;;;3.83;100.00
9721;BME280;4899;42.644;23.366;2023-02-15T15:59:59;95440.16;;;3.79;100.00
9721;BME280;4899;42.644;23.366;2023-02-15T16:02:25;95455.00;;;3.87;100.00
9721;BME280;4899;42.644;23.366;2023-02-15T16:04:51;95443.91;;;3.93;100.00
9721;BME280;4899;42.644;23.366;2023-02-15T16:07:20;95443.91;;;3.93;100.00
9721;BME280;4899;42.644;23.366;2023-02-15T16:12:37;95442.16;;;3.77;100.00
9721;BME280;4899;42.644;23.366;2023-02-15T16:15:29;95448.03;;;3.78;100.00
9721;BME280;4899;42.644;23.366;2023-02-15T16:17:57;95445.47;;;3.78;100.00
9721;BME280;4899;42.644;23.366;2023-02-15T16:20:30;95451.19;;;3.68;100.00
9721;BME280;4899;42.644;23.366;2023-02-15T16:25:49;95451.66;;;3.48;100.00
9721;BME280;4899;42.644;23.366;2023-02-15T16:28:24;95451.09;;;3.29;100.00
9721;BME280;4899;42.644;23.366;2023-02-15T16:31:13;95453.09;;;3.11;100.00
9721;BME280;4899;42.644;23.366;2023-02-15T16:33:40;95448.06;;;2.99;100.00
9721;BME280;4899;42.644;23.366;2023-02-15T16:36:12;95455.00;;;3.03;100.00
9721;BME280;4899;42.644;23.366;2023-02-15T16:41:15;95464.66;;;2.90;100.00
9721;BME280;4899;42.644;23.366;2023-02-15T16:43:43;95463.13;;;2.89;100.00
9721;BME280;4899;42.644;23.366;2023-02-15T16:46:19;95460.03;;;2.87;100.00